Time;durP1;ratioP1;P1;durP2;ratioP2;P2;SDS_P1;SDS_P2;PMS_P1;PMS_P2;Temp;Humidity;BMP_temperature;BMP_pressure;BME280_temperature;BME280_humidity;BME280_pressure;Samples;Min_cycle;Max_cycle;Signal;HPM_P1;HPM_P2
2021/06/07 00:01:43;;;;;;;5.13;4.63;;;;;;;11.26;77.54;101413.91;4957028;28;20110;-80
2021/06/07 00:04:11;;;;;;;5.88;4.90;;;;;;;11.27;77.41;101415.69;4952903;28;20086;-77
2021/06/07 00:06:38;;;;;;;5.93;4.95;;;;;;;11.21;77.53;101408.69;4959661;28;20458;-80
2021/06/07 00:09:07;;;;;;;7.50;5.07;;;;;;;11.26;77.07;101421.84;4950419;28;20059;-79
2021/06/07 00:11:35;;;;;;;6.55;5.50;;;;;;;11.20;77.66;101411.34;4962543;28;20035;-81
2021/06/07 00:14:02;;;;;;;6.70;5.68;;;;;;;11.12;77.95;101418.50;4947805;28;20047;-81
2021/06/07 00:16:31;;;;;;;7.50;5.15;;;;;;;11.08;78.17;101417.63;4960881;28;20047;-77
2021/06/07 00:18:58;;;;;;;7.65;5.68;;;;;;;10.98;78.48;101415.97;4919458;28;20044;-79
2021/06/07 00:21:28;;;;;;;7.90;5.45;;;;;;;10.97;78.73;101414.22;4932139;28;20040;-78
2021/06/07 00:23:57;;;;;;;6.25;5.28;;;;;;;10.96;78.81;101412.47;4948413;28;20044;-80
2021/06/07 00:26:24;;;;;;;7.82;5.78;;;;;;;10.95;78.91;101405.44;4954507;28;20051;-79
2021/06/07 00:28:50;;;;;;;7.85;5.88;;;;;;;10.95;78.97;101413.38;4942575;29;20444;-79
2021/06/07 00:31:17;;;;;;;6.82;5.07;;;;;;;10.91;79.59;101411.63;4973720;28;20076;-78
2021/06/07 00:33:44;;;;;;;7.03;5.65;;;;;;;10.87;79.56;101408.16;4942603;28;20039;-78
2021/06/07 00:36:12;;;;;;;6.65;5.35;;;;;;;10.83;79.99;101405.53;4945118;28;20080;-79
2021/06/07 00:38:39;;;;;;;6.95;5.45;;;;;;;10.80;79.73;101409.09;4975529;28;20107;-78
2021/06/07 00:41:08;;;;;;;8.05;5.68;;;;;;;10.77;79.73;101413.56;4952747;28;20062;-79
2021/06/07 00:43:35;;;;;;;7.10;6.38;;;;;;;10.68;80.21;101406.59;4946133;28;20051;-79
2021/06/07 00:46:02;;;;;;;9.75;5.40;;;;;;;10.57;80.99;101404.03;4953632;28;20079;-80
2021/06/07 00:48:29;;;;;;;6.82;5.40;;;;;;;10.49;81.28;101410.25;4950063;28;20051;-79
2021/06/07 00:50:59;;;;;;;5.85;5.22;;;;;;;10.39;81.48;101409.47;4959858;28;20099;-80
2021/06/07 00:53:26;;;;;;;7.13;6.13;;;;;;;10.24;82.34;101414.84;4973929;28;20383;-80
2021/06/07 00:55:56;;;;;;;7.18;6.15;;;;;;;10.21;82.31;101414.84;4934204;28;20054;-79
2021/06/07 00:58:25;;;;;;;8.32;6.05;;;;;;;10.22;82.32;101404.31;4959060;28;20118;-79
2021/06/07 01:00:52;;;;;;;8.73;5.97;;;;;;;10.17;82.56;101411.34;4934769;29;20090;-79
2021/06/07 01:03:20;;;;;;;7.32;6.50;;;;;;;10.19;82.72;101411.34;4956739;28;20765;-79
2021/06/07 01:05:49;;;;;;;7.43;5.82;;;;;;;10.15;82.51;101408.72;4957897;28;20046;-79
2021/06/07 01:08:16;;;;;;;7.90;6.20;;;;;;;10.04;83.12;101407.91;4915685;29;20068;-81
2021/06/07 01:10:44;;;;;;;7.18;5.50;;;;;;;9.97;83.82;101406.19;4957255;28;20051;-79
2021/06/07 01:13:13;;;;;;;6.80;5.95;;;;;;;9.87;84.07;101404.50;4960552;28;20055;-78
2021/06/07 01:15:42;;;;;;;12.63;6.63;;;;;;;9.92;84.01;101412.38;4953812;28;20107;-79
2021/06/07 01:18:09;;;;;;;7.75;6.10;;;;;;;9.91;84.00;101402.72;4962699;28;20047;-80
2021/06/07 01:20:36;;;;;;;7.40;6.05;;;;;;;9.88;83.95;101406.25;4957358;28;20043;-79
2021/06/07 01:23:03;;;;;;;6.93;6.07;;;;;;;9.84;84.64;101402.75;4950135;28;20062;-78
2021/06/07 01:25:36;;;;;;;7.95;6.10;;;;;;;9.82;84.53;101393.94;4976033;28;20044;-81
2021/06/07 01:28:05;;;;;;;8.50;5.82;;;;;;;9.76;84.61;101395.78;4934515;28;20043;-76
2021/06/07 01:30:34;;;;;;;7.72;6.18;;;;;;;9.70;85.19;101403.72;4943572;28;20105;-79
2021/06/07 01:33:02;;;;;;;7.13;6.43;;;;;;;9.63;85.76;101400.22;4940157;28;20062;-78
2021/06/07 01:35:30;;;;;;;8.32;6.28;;;;;;;9.57;85.95;101406.38;4929515;28;20047;-77
2021/06/07 01:37:57;;;;;;;11.13;6.75;;;;;;;9.58;85.93;101402.00;4944988;29;20142;-78
2021/06/07 01:40:28;;;;;;;7.40;6.28;;;;;;;9.55;85.41;101399.38;4959270;28;20090;-77
2021/06/07 01:42:55;;;;;;;8.32;6.63;;;;;;;9.51;85.52;101398.53;4962505;28;20106;-78
2021/06/07 01:45:24;;;;;;;8.37;6.20;;;;;;;9.46;85.94;101402.06;4970458;28;20090;-79
2021/06/07 01:47:52;;;;;;;7.70;5.90;;;;;;;9.41;86.14;101409.97;4961414;28;20047;-79
2021/06/07 01:50:20;;;;;;;8.10;6.30;;;;;;;9.36;86.17;101406.50;4963088;28;20043;-79
2021/06/07 01:52:49;;;;;;;7.10;6.03;;;;;;;9.36;85.54;101397.72;4962897;28;20043;-80
2021/06/07 01:55:21;;;;;;;9.98;6.72;;;;;;;9.30;86.04;101402.09;4938106;28;20047;-79
2021/06/07 01:57:49;;;;;;;7.57;6.73;;;;;;;9.24;86.51;101404.75;4944310;29;20095;-77
2021/06/07 02:00:24;;;;;;;8.88;5.47;;;;;;;9.17;86.80;101399.53;4953560;28;20050;-76
2021/06/07 02:02:51;;;;;;;7.00;6.23;;;;;;;9.13;87.11;101408.31;4949764;28;20046;-81
2021/06/07 02:05:23;;;;;;;8.40;6.00;;;;;;;9.09;86.93;101410.09;4932556;28;20047;-78
2021/06/07 02:07:55;;;;;;;8.90;6.38;;;;;;;9.06;86.92;101403.94;4949848;28;20040;-79
2021/06/07 02:10:24;;;;;;;7.83;6.60;;;;;;;9.01;87.12;101398.69;4959524;28;20270;-79
2021/06/07 02:12:51;;;;;;;7.97;6.30;;;;;;;8.96;87.59;101403.09;4942745;28;20061;-81
2021/06/07 02:15:18;;;;;;;7.40;5.80;;;;;;;8.88;87.54;101405.72;4959302;28;20103;-82
2021/06/07 02:17:45;;;;;;;8.30;6.57;;;;;;;8.81;88.07;101405.75;4945852;28;20051;-80
2021/06/07 02:20:17;;;;;;;6.93;6.07;;;;;;;8.73;88.17;101406.63;4953968;28;20593;-82
2021/06/07 02:22:45;;;;;;;7.73;6.23;;;;;;;8.72;88.21;101404.88;4925012;29;20047;-81
2021/06/07 02:25:14;;;;;;;7.57;6.03;;;;;;;8.70;88.05;101404.00;4954229;28;20043;-81
2021/06/07 02:27:41;;;;;;;7.93;6.53;;;;;;;8.68;88.28;101402.25;4975323;28;20043;-78
2021/06/07 02:30:17;;;;;;;10.37;6.17;;;;;;;8.65;88.03;101410.13;4961058;28;20098;-81
2021/06/07 02:32:43;;;;;;;6.80;6.00;;;;;;;8.57;88.67;101401.38;4965088;28;20043;-80
2021/06/07 02:35:12;;;;;;;7.60;5.77;;;;;;;8.51;88.97;101404.91;4958623;28;20077;-82
2021/06/07 02:37:39;;;;;;;8.43;6.60;;;;;;;8.53;89.02;101405.78;4941711;28;20102;-79
2021/06/07 02:40:08;;;;;;;9.40;6.80;;;;;;;8.53;89.02;101399.63;4967793;28;20042;-82
2021/06/07 02:42:37;;;;;;;7.03;6.23;;;;;;;8.45;89.28;101400.50;4968245;28;20052;-81
2021/06/07 02:45:12;;;;;;;7.57;5.93;;;;;;;8.48;89.01;101396.09;4944302;28;20552;-80
2021/06/07 02:47:40;;;;;;;8.33;7.00;;;;;;;8.43;89.47;101393.47;4948531;28;20654;-83
2021/06/07 02:50:09;;;;;;;7.67;6.30;;;;;;;8.37;89.32;101391.72;4944580;28;20448;-78
2021/06/07 02:52:47;;;;;;;11.33;6.30;;;;;;;8.36;89.72;101400.50;4963590;28;20472;-82
2021/06/07 02:55:22;;;;;;;9.63;6.80;;;;;;;8.33;89.86;101392.56;4956953;28;20043;-80
2021/06/07 02:57:50;;;;;;;7.83;7.00;;;;;;;8.32;90.11;101395.19;4971405;28;20125;-81
2021/06/07 03:00:49;;;;;;;8.23;6.57;;;;;;;8.31;89.91;101399.56;4944645;28;20157;-82
2021/06/07 03:03:16;;;;;;;8.10;5.93;;;;;;;8.27;90.26;101405.72;4958738;28;20067;-78
2021/06/07 03:05:44;;;;;;;7.30;6.07;;;;;;;8.23;90.12;101396.06;4958163;28;20094;-82
2021/06/07 03:08:13;;;;;;;7.77;6.20;;;;;;;8.19;90.13;101405.72;4946583;29;20043;-78
2021/06/07 03:10:41;;;;;;;8.17;6.23;;;;;;;8.16;90.29;101405.72;4945990;28;20043;-79
2021/06/07 03:13:08;;;;;;;7.07;5.87;;;;;;;8.17;90.19;101398.72;4972780;28;20808;-78
2021/06/07 03:15:35;;;;;;;7.37;6.27;;;;;;;8.14;90.81;101404.81;4946667;28;20046;-81
2021/06/07 03:18:04;;;;;;;9.00;6.60;;;;;;;8.13;90.63;101405.69;4957051;28;20044;-81
2021/06/07 03:20:31;;;;;;;8.03;6.13;;;;;;;8.13;91.14;101404.81;4941731;28;20122;-82
2021/06/07 03:23:00;;;;;;;7.97;6.37;;;;;;;8.13;91.00;101405.69;4930464;29;20109;-78
2021/06/07 03:25:29;;;;;;;7.47;6.67;;;;;;;8.15;90.73;101406.56;4941421;28;20043;-81
2021/06/07 03:27:57;;;;;;;7.83;6.70;;;;;;;8.12;91.23;101403.94;4940428;28;20094;-81
2021/06/07 03:30:24;;;;;;;8.97;6.73;;;;;;;8.12;91.98;101403.94;4957113;28;20561;-82
2021/06/07 03:32:51;;;;;;;7.80;5.97;;;;;;;8.13;90.94;101399.56;4962134;28;20051;-80
2021/06/07 03:35:19;;;;;;;7.20;5.87;;;;;;;8.12;90.78;101406.59;4955455;28;20239;-80
2021/06/07 03:37:46;;;;;;;8.13;6.80;;;;;;;8.12;90.80;101395.19;4970238;28;20133;-82
2021/06/07 03:40:22;;;;;;;9.73;6.47;;;;;;;8.09;90.93;101406.59;4954960;28;20047;-80
2021/06/07 03:42:48;;;;;;;8.30;6.23;;;;;;;8.07;91.45;101410.06;4973461;28;20110;-79
2021/06/07 03:45:16;;;;;;;8.83;6.37;;;;;;;8.05;91.75;101410.06;4958207;28;20112;-81
2021/06/07 03:47:44;;;;;;;8.53;6.90;;;;;;;8.05;91.26;101402.19;4964431;28;20039;-82
2021/06/07 03:50:13;;;;;;;8.37;6.40;;;;;;;8.08;91.36;101412.72;4977457;28;20070;-82
2021/06/07 03:52:39;;;;;;;10.17;6.30;;;;;;;8.10;91.27;101403.06;4954711;23;20440;-77
2021/06/07 03:55:08;;;;;;;8.50;6.40;;;;;;;8.13;91.13;101403.06;4964021;28;20656;-78
2021/06/07 03:57:35;;;;;;;8.27;6.83;;;;;;;8.14;nan;101403.94;4962542;28;20043;-78
2021/06/07 04:00:05;;;;;;;7.63;6.23;;;;;;;8.08;92.49;101410.09;4971064;28;20031;-78
2021/06/07 04:02:32;;;;;;;9.77;6.90;;;;;;;8.03;91.91;101403.06;4984769;28;20050;-78
2021/06/07 04:04:58;;;;;;;8.63;6.63;;;;;;;8.09;90.89;101395.19;4946585;28;20035;-77
2021/06/07 04:07:25;;;;;;;9.83;7.37;;;;;;;8.07;91.43;101410.06;4948114;28;20050;-77
2021/06/07 04:09:52;;;;;;;8.53;6.23;;;;;;;8.11;91.64;101411.84;4969023;28;20165;-78
2021/06/07 04:12:19;;;;;;;8.47;6.97;;;;;;;8.22;92.55;101415.34;4971226;28;20042;-78
2021/06/07 04:14:45;;;;;;;7.67;6.60;;;;;;;8.25;92.69;101410.13;4954060;28;20038;-79
2021/06/07 04:17:12;;;;;;;9.47;7.07;;;;;;;8.24;92.21;101412.72;4965440;28;20043;-78
2021/06/07 04:19:39;;;;;;;9.33;6.83;;;;;;;8.29;92.85;101405.72;4959254;28;20035;-78
2021/06/07 04:22:06;;;;;;;10.30;7.60;;;;;;;8.32;92.94;101409.22;4967360;28;20058;-77
2021/06/07 04:24:32;;;;;;;8.80;7.83;;;;;;;8.29;93.17;101409.22;4962761;28;20456;-79
2021/06/07 04:26:59;;;;;;;8.97;6.83;;;;;;;8.35;93.87;101417.19;4970052;28;20050;-78
2021/06/07 04:29:26;;;;;;;7.93;6.93;;;;;;;8.39;93.80;101413.66;4980309;28;20054;-77
2021/06/07 04:31:52;;;;;;;8.00;6.50;;;;;;;8.45;94.86;101411.03;4964990;28;20074;-78
2021/06/07 04:34:19;;;;;;;12.27;6.77;;;;;;;8.50;95.00;101412.81;4964490;28;20074;-78
2021/06/07 04:36:46;;;;;;;12.30;7.20;;;;;;;8.54;94.90;101414.53;4969784;28;20043;-78
2021/06/07 04:39:12;;;;;;;8.20;7.00;;;;;;;8.53;94.99;101412.78;4953720;28;20051;-77
2021/06/07 04:41:39;;;;;;;10.23;6.80;;;;;;;8.59;95.06;101411.03;4965959;28;20050;-76
2021/06/07 04:44:06;;;;;;;9.13;6.60;;;;;;;8.61;94.97;101411.03;4937523;28;20050;-76
2021/06/07 04:46:33;;;;;;;9.10;7.37;;;;;;;8.71;94.94;101410.16;4953793;28;20058;-77
2021/06/07 04:49:00;;;;;;;10.73;7.17;;;;;;;8.73;94.92;101408.38;4967626;28;20480;-77
2021/06/07 04:51:26;;;;;;;8.20;6.73;;;;;;;8.81;95.08;101397.84;4969686;28;20097;-76
2021/06/07 04:53:53;;;;;;;7.90;6.70;;;;;;;8.83;95.45;101401.34;4969049;28;20066;-78
2021/06/07 04:56:19;;;;;;;12.77;8.33;;;;;;;8.88;95.50;101403.09;4971394;28;20105;-76
2021/06/07 04:58:47;;;;;;;9.10;7.43;;;;;;;9.09;95.02;101404.81;4952621;28;20578;-75
2021/06/07 05:01:16;;;;;;;8.93;7.80;;;;;;;9.20;95.27;101408.31;4959077;28;20381;-76
2021/06/07 05:03:43;;;;;;;9.33;7.10;;;;;;;9.31;95.56;101411.78;4983297;28;20070;-78
2021/06/07 05:06:09;;;;;;;8.05;6.78;;;;;;;9.31;96.25;101417.03;4972566;28;20046;-76
2021/06/07 05:08:36;;;;;;;7.53;6.60;;;;;;;9.41;96.77;101415.25;4965989;28;20068;-77
2021/06/07 05:11:03;;;;;;;8.27;7.37;;;;;;;9.47;97.20;101407.31;4962313;28;20074;-77
2021/06/07 05:13:30;;;;;;;7.70;6.40;;;;;;;9.71;97.28;101418.66;4960682;28;20196;-81
2021/06/07 05:15:57;;;;;;;7.80;6.13;;;;;;;10.16;95.14;101407.81;4961152;28;20082;-79
2021/06/07 05:18:24;;;;;;;7.18;6.47;;;;;;;10.60;92.96;101405.78;4976566;28;20054;-79
2021/06/07 05:20:51;;;;;;;8.10;6.15;;;;;;;10.73;92.49;101417.09;4970887;28;20034;-77
2021/06/07 05:23:19;;;;;;;7.50;6.28;;;;;;;10.82;92.25;101414.38;4952561;28;20089;-77
2021/06/07 05:25:46;;;;;;;8.68;6.45;;;;;;;10.83;92.75;101410.84;4948816;28;20062;-79
2021/06/07 05:28:14;;;;;;;7.90;6.00;;;;;;;10.99;93.54;101415.09;4950125;28;20094;-77
2021/06/07 05:30:42;;;;;;;8.88;6.53;;;;;;;11.02;94.34;101423.00;4978242;28;20054;-77
2021/06/07 05:33:12;;;;;;;8.20;6.35;;;;;;;10.97;94.90;101417.75;4956555;28;20758;-77
2021/06/07 05:35:42;;;;;;;7.78;6.20;;;;;;;11.08;95.17;101424.69;4935456;28;20046;-77
2021/06/07 05:38:10;;;;;;;6.65;5.75;;;;;;;11.43;95.44;101411.06;4952876;28;20578;-79
2021/06/07 05:40:37;;;;;;;8.13;6.30;;;;;;;11.95;93.20;101419.25;4949905;28;20090;-77
2021/06/07 05:43:04;;;;;;;6.15;5.30;;;;;;;12.72;91.50;101411.00;4968032;28;20039;-79
2021/06/07 05:45:32;;;;;;;5.78;5.28;;;;;;;14.89;80.83;101406.31;4961055;28;20031;-77
2021/06/07 05:47:59;;;;;;;4.97;4.47;;;;;;;17.52;68.69;101403.28;4952260;28;20043;-78
2021/06/07 05:50:28;;;;;;;5.32;4.75;;;;;;;19.49;60.34;101406.72;4964098;28;20042;-79
2021/06/07 05:52:55;;;;;;;5.25;4.15;;;;;;;20.90;55.80;101403.47;4951436;28;20050;-78
2021/06/07 05:55:22;;;;;;;4.93;4.43;;;;;;;22.52;51.60;101402.63;4960532;28;20046;-79
2021/06/07 05:57:53;;;;;;;6.35;4.28;;;;;;;23.00;47.81;101409.66;4947414;28;20109;-78
2021/06/07 06:00:23;;;;;;;4.82;4.32;;;;;;;24.39;45.83;101405.41;4947103;28;20051;-79
2021/06/07 06:02:50;;;;;;;7.10;4.03;;;;;;;24.57;43.63;101404.19;4948100;28;20046;-80
2021/06/07 06:05:17;;;;;;;4.70;4.20;;;;;;;24.32;44.88;101413.06;4967771;28;20101;-82
2021/06/07 06:07:45;;;;;;;6.38;4.22;;;;;;;23.89;45.44;101408.69;4966632;28;20081;-80
2021/06/07 06:10:13;;;;;;;5.88;3.65;;;;;;;22.86;46.05;101417.72;4949937;28;20042;-78
2021/06/07 06:12:40;;;;;;;4.47;3.90;;;;;;;22.55;44.12;101409.69;4948191;29;20507;-78
2021/06/07 06:15:08;;;;;;;4.05;3.65;;;;;;;21.57;46.13;101413.38;4964511;28;20050;-80
2021/06/07 06:17:36;;;;;;;6.72;4.38;;;;;;;21.02;47.76;101410.00;4950822;28;20109;-79
2021/06/07 06:20:04;;;;;;;5.32;3.55;;;;;;;20.96;46.07;101407.66;4958990;28;20043;-77
2021/06/07 06:22:32;;;;;;;5.03;3.80;;;;;;;21.13;50.39;101402.28;4976923;28;20457;-78
2021/06/07 06:24:58;;;;;;;4.55;3.25;;;;;;;21.30;51.62;101407.66;4965587;28;20503;-77
2021/06/07 06:27:25;;;;;;;7.07;3.90;;;;;;;21.24;48.39;101413.31;4953061;28;20046;-77
2021/06/07 06:29:52;;;;;;;5.55;3.33;;;;;;;21.33;47.29;101410.16;4964405;28;20555;-79
2021/06/07 06:32:18;;;;;;;4.15;3.50;;;;;;;21.30;46.38;101406.78;4935633;28;20097;-78
2021/06/07 06:34:47;;;;;;;4.53;3.00;;;;;;;21.41;45.16;101401.69;4960445;28;20031;-78
2021/06/07 06:37:15;;;;;;;3.97;3.35;;;;;;;21.52;47.64;101406.50;4942360;28;20098;-79
2021/06/07 06:39:42;;;;;;;4.32;3.80;;;;;;;21.68;45.27;101409.22;4974427;28;20042;-78
2021/06/07 06:42:09;;;;;;;5.18;3.20;;;;;;;21.93;45.27;101406.91;4965594;28;20086;-79
2021/06/07 06:44:35;;;;;;;4.47;3.33;;;;;;;22.03;45.99;101412.63;4946283;28;20042;-77
2021/06/07 06:47:03;;;;;;;3.95;3.22;;;;;;;22.05;43.90;101413.44;4956173;28;20497;-78
2021/06/07 06:49:30;;;;;;;4.90;3.38;;;;;;;22.10;45.38;101419.44;4964561;28;20089;-77
2021/06/07 06:51:58;;;;;;;5.80;3.63;;;;;;;22.26;45.17;101406.84;4947048;28;20497;-77
2021/06/07 06:54:25;;;;;;;5.75;3.50;;;;;;;22.24;43.81;101408.75;4944132;28;20047;-78
2021/06/07 06:56:52;;;;;;;3.53;3.13;;;;;;;22.13;44.97;101408.53;4959778;28;20055;-77
2021/06/07 06:59:19;;;;;;;5.22;3.72;;;;;;;21.97;43.25;101405.78;4975563;28;20039;-79
2021/06/07 07:01:46;;;;;;;4.15;3.25;;;;;;;22.17;42.33;101410.94;4966017;28;20579;-78
2021/06/07 07:04:13;;;;;;;5.10;3.22;;;;;;;22.34;42.82;101407.28;4957840;28;20551;-79
2021/06/07 07:06:40;;;;;;;4.70;3.45;;;;;;;22.57;44.31;101408.63;4961858;28;20034;-79
2021/06/07 07:09:07;;;;;;;4.88;3.47;;;;;;;22.75;42.17;101414.75;4952579;28;20589;-79
2021/06/07 07:11:34;;;;;;;5.43;3.47;;;;;;;22.87;41.11;101411.38;4953153;28;20097;-78
2021/06/07 07:14:01;;;;;;;3.88;3.10;;;;;;;22.83;41.00;101417.00;4960865;28;20702;-77
2021/06/07 07:16:29;;;;;;;5.03;3.10;;;;;;;22.74;40.19;101424.66;4962245;28;20042;-78
2021/06/07 07:18:56;;;;;;;3.72;2.83;;;;;;;22.64;40.36;101420.78;4969176;28;20043;-79
2021/06/07 07:21:23;;;;;;;4.35;3.15;;;;;;;22.73;40.09;101419.38;4953437;28;20047;-81
2021/06/07 07:23:50;;;;;;;4.95;3.05;;;;;;;22.77;40.54;101429.00;4951834;28;20416;-78
2021/06/07 07:26:17;;;;;;;3.83;3.42;;;;;;;22.76;39.68;101428.13;4959009;28;20039;-78
2021/06/07 07:28:43;;;;;;;4.72;3.13;;;;;;;22.63;39.69;101416.38;4950506;28;20097;-78
2021/06/07 07:31:10;;;;;;;3.40;3.10;;;;;;;22.82;41.50;101423.34;4961840;28;20039;-77
2021/06/07 07:33:38;;;;;;;5.05;3.45;;;;;;;22.71;38.57;101424.00;4962855;28;20043;-77
2021/06/07 07:36:07;;;;;;;3.38;3.08;;;;;;;23.12;40.97;101420.66;4960461;28;20047;-79
2021/06/07 07:38:34;;;;;;;3.47;3.00;;;;;;;23.19;39.34;101427.41;4950578;28;20053;-80
2021/06/07 07:41:01;;;;;;;4.18;3.10;;;;;;;23.35;39.86;101435.44;4949904;28;20066;-78
2021/06/07 07:43:28;;;;;;;4.35;3.28;;;;;;;23.49;36.60;101430.06;4956033;28;20101;-79
2021/06/07 07:45:54;;;;;;;3.35;3.00;;;;;;;23.74;38.93;101424.88;4967190;28;20039;-79
2021/06/07 07:48:21;;;;;;;4.13;2.83;;;;;;;23.98;38.42;101419.75;4966561;28;20038;-79
2021/06/07 07:50:48;;;;;;;4.20;3.03;;;;;;;23.87;35.58;101419.56;4966908;28;20508;-81
2021/06/07 07:53:15;;;;;;;3.88;3.47;;;;;;;24.24;36.67;101420.75;4969964;28;20806;-79
2021/06/07 07:55:43;;;;;;;4.05;3.35;;;;;;;24.27;36.42;101414.28;4960787;28;20492;-80
2021/06/07 07:58:11;;;;;;;3.65;3.35;;;;;;;24.37;37.44;101427.09;4951038;28;20055;-78
2021/06/07 08:00:41;;;;;;;3.38;3.00;;;;;;;24.43;36.78;101420.44;4947271;28;20070;-79
2021/06/07 08:03:09;;;;;;;3.50;3.08;;;;;;;24.62;37.54;101420.94;4949866;28;20523;-82
2021/06/07 08:05:36;;;;;;;3.97;3.08;;;;;;;24.65;37.32;101423.44;4973262;28;20059;-79
2021/06/07 08:08:03;;;;;;;3.30;3.00;;;;;;;24.73;37.39;101419.38;4950247;28;20411;-82
2021/06/07 08:10:30;;;;;;;3.55;3.00;;;;;;;24.82;38.42;101422.31;4948114;28;20098;-81
2021/06/07 08:12:59;;;;;;;4.28;3.50;;;;;;;24.24;35.26;101420.75;4941832;28;20466;-79
2021/06/07 08:15:27;;;;;;;7.03;3.30;;;;;;;24.65;35.83;101415.34;4948101;28;20058;-79
2021/06/07 08:17:54;;;;;;;4.68;3.17;;;;;;;24.59;36.07;101421.16;4964896;28;20042;-78
2021/06/07 08:20:22;;;;;;;5.22;3.10;;;;;;;24.33;36.97;101416.63;4940683;28;20038;-79
2021/06/07 08:22:50;;;;;;;143.90;17.00;;;;;;;24.34;37.06;101412.94;4978152;28;20039;-78
2021/06/07 08:25:19;;;;;;;11.38;4.45;;;;;;;24.53;38.40;101418.84;4948041;28;20043;-79
2021/06/07 08:27:46;;;;;;;3.72;3.30;;;;;;;24.90;38.42;101414.53;4969595;28;20074;-78
2021/06/07 08:30:14;;;;;;;4.18;3.30;;;;;;;24.99;37.57;101410.34;4935239;28;20126;-78
2021/06/07 08:32:41;;;;;;;4.53;3.63;;;;;;;25.09;35.13;101411.47;4951078;28;20055;-81
2021/06/07 08:35:10;;;;;;;4.97;3.55;;;;;;;24.96;37.08;101407.81;4965641;28;20043;-79
2021/06/07 08:37:38;;;;;;;5.38;3.65;;;;;;;25.14;36.40;101411.13;4946357;28;20047;-80
2021/06/07 08:40:08;;;;;;;3.45;3.15;;;;;;;25.25;36.93;101403.16;4947045;28;20088;-80
2021/06/07 08:42:37;;;;;;;5.70;3.20;;;;;;;25.33;35.54;101413.44;4927948;28;20109;-81
2021/06/07 08:45:06;;;;;;;13.45;3.90;;;;;;;25.31;35.36;101415.34;4934190;28;20247;-81
2021/06/07 08:47:33;;;;;;;8.43;4.50;;;;;;;25.38;36.54;101404.00;4936841;28;20517;-80
2021/06/07 08:50:00;;;;;;;49.97;7.95;;;;;;;25.58;36.18;101405.28;4951254;28;20432;-80
2021/06/07 08:52:27;;;;;;;4.20;3.40;;;;;;;25.73;36.28;101400.66;4985021;28;20097;-80
2021/06/07 08:54:53;;;;;;;4.28;3.60;;;;;;;25.90;36.21;101411.13;4953473;28;20047;-81
2021/06/07 08:57:20;;;;;;;3.92;3.15;;;;;;;25.44;35.26;101405.41;4966268;28;20039;-82
2021/06/07 08:59:47;;;;;;;5.03;3.28;;;;;;;25.34;37.86;101409.75;4978966;28;20046;-80
2021/06/07 09:02:14;;;;;;;4.35;3.30;;;;;;;25.66;35.46;101407.47;4951283;28;20137;-81
2021/06/07 09:04:48;;;;;;;3.65;3.17;;;;;;;26.04;35.05;101407.41;4936889;28;20047;-81
2021/06/07 09:07:16;;;;;;;5.15;3.45;;;;;;;26.03;35.19;101411.94;4933857;29;20043;-81
2021/06/07 09:10:07;;;;;;;5.63;3.50;;;;;;;26.15;34.96;101412.91;4953508;28;20105;-80
2021/06/07 09:12:33;;;;;;;4.00;3.20;;;;;;;26.27;35.36;101394.88;4966647;28;20031;-80
2021/06/07 09:15:01;;;;;;;5.10;3.45;;;;;;;26.47;34.98;101399.66;4948158;28;20058;-82
2021/06/07 09:17:28;;;;;;;3.97;3.17;;;;;;;26.65;33.76;101405.53;4955595;28;20038;-81
2021/06/07 09:20:18;;;;;;;4.00;3.38;;;;;;;26.50;32.83;101398.59;4952818;28;20570;-83
2021/06/07 09:22:52;;;;;;;4.40;3.70;;;;;;;26.21;34.16;101408.84;4971828;28;20058;-80
2021/06/07 09:25:23;;;;;;;3.83;3.53;;;;;;;26.23;32.59;101398.75;4963960;28;20106;-80
2021/06/07 09:28:09;;;;;;;27.42;5.45;;;;;;;26.02;34.67;101404.81;4979086;28;20041;-80
2021/06/07 09:30:55;;;;;;;5.03;3.70;;;;;;;25.86;34.91;101403.34;4960037;28;20051;-79
2021/06/07 09:33:34;;;;;;;3.92;3.42;;;;;;;26.13;34.30;101406.72;4945138;28;20047;-80
2021/06/07 09:36:12;;;;;;;4.75;3.47;;;;;;;26.41;34.00;101399.28;4951299;28;20520;-81
2021/06/07 09:38:55;;;;;;;4.32;3.75;;;;;;;26.27;33.88;101400.28;4970470;28;20051;-82
2021/06/07 09:41:23;;;;;;;4.30;3.87;;;;;;;26.23;33.24;101391.50;4967183;28;20472;-80
2021/06/07 09:43:51;;;;;;;10.68;4.65;;;;;;;25.95;34.00;101408.06;4944459;28;20615;-81
2021/06/07 09:46:25;;;;;;;3.70;3.40;;;;;;;26.03;33.26;101402.97;4966844;28;20093;-81
2021/06/07 09:49:07;;;;;;;;;;;;;;;26.35;33.83;101398.72;4952020;29;20503;-84
2021/06/07 09:51:36;;;;;;;4.50;3.40;;;;;;;26.36;33.24;101397.75;4951737;28;20373;-79
2021/06/07 09:54:03;;;;;;;4.13;3.35;;;;;;;26.28;33.45;101394.75;4947907;28;20065;-80
2021/06/07 09:56:46;;;;;;;4.40;3.45;;;;;;;26.60;34.03;101392.34;4957596;28;20559;-80
2021/06/07 09:59:34;;;;;;;5.82;3.42;;;;;;;26.84;32.56;101391.47;4953389;28;20051;-81
2021/06/07 10:02:12;;;;;;;3.60;3.30;;;;;;;26.97;32.04;101399.50;4952433;28;20131;-80
2021/06/07 10:04:57;;;;;;;4.68;3.70;;;;;;;26.36;33.15;101391.47;4946561;28;20050;-81
2021/06/07 10:07:25;;;;;;;4.68;3.58;;;;;;;26.02;31.60;101401.22;4939454;28;20066;-82
2021/06/07 10:10:15;;;;;;;7.47;3.83;;;;;;;26.08;33.43;101379.13;4984657;28;20089;-81
2021/06/07 10:12:43;;;;;;;4.20;3.03;;;;;;;26.43;31.51;101394.63;4968195;28;20031;-80
2021/06/07 10:15:13;;;;;;;4.47;3.67;;;;;;;26.63;32.99;101404.78;4945613;28;20046;-81
2021/06/07 10:17:40;;;;;;;20.65;4.50;;;;;;;26.86;32.86;101393.06;4973058;28;20071;-81
2021/06/07 10:22:37;;;;;;;11.90;4.25;;;;;;;27.46;32.09;101397.38;4949754;28;20047;-80
2021/06/07 10:25:06;;;;;;;7.50;3.47;;;;;;;27.63;31.72;101390.59;4971066;28;20046;-81
2021/06/07 10:27:33;;;;;;;4.78;3.60;;;;;;;27.79;31.58;101397.53;4958525;28;20381;-81
2021/06/07 10:30:01;;;;;;;8.68;3.85;;;;;;;27.89;30.72;101396.66;4969535;28;20034;-80
2021/06/07 10:32:29;;;;;;;4.15;3.38;;;;;;;27.68;30.14;101384.84;4952624;28;20043;-79
2021/06/07 10:34:59;;;;;;;4.40;3.45;;;;;;;27.54;31.49;101394.06;4962467;28;20140;-79
2021/06/07 10:37:28;;;;;;;3.88;3.50;;;;;;;27.75;30.38;101388.81;4970904;28;20050;-79
2021/06/07 10:40:19;;;;;;;8.63;4.00;;;;;;;27.78;30.90;101377.69;4966892;28;20043;-79
2021/06/07 10:42:56;;;;;;;4.03;3.40;;;;;;;27.85;31.91;101384.34;4984026;28;20190;-79
2021/06/07 10:45:26;;;;;;;4.75;3.50;;;;;;;27.61;30.08;101380.88;4986283;28;20101;-82
2021/06/07 10:47:53;;;;;;;3.03;2.72;;;;;;;27.89;29.41;101383.09;4957323;28;20531;-81
2021/06/07 10:50:28;;;;;;;3.95;3.15;;;;;;;27.68;30.19;101384.84;4965268;28;20082;-80
2021/06/07 10:52:59;;;;;;;3.80;3.40;;;;;;;27.76;30.07;101374.22;4965652;28;20547;-80
2021/06/07 10:55:40;;;;;;;3.70;3.30;;;;;;;27.80;30.37;101378.41;4949215;28;20700;-82
2021/06/07 10:58:12;;;;;;;4.30;3.30;;;;;;;28.01;30.88;101375.81;4949563;28;20039;-80
2021/06/07 11:00:45;;;;;;;4.18;3.42;;;;;;;27.76;30.00;101375.09;4968804;28;20093;-82
2021/06/07 11:03:18;;;;;;;4.68;3.20;;;;;;;27.48;29.53;101375.53;4939061;28;20428;-81
2021/06/07 11:05:47;;;;;;;5.68;3.35;;;;;;;27.30;30.18;101375.16;4955324;28;20038;-82
2021/06/07 11:08:25;;;;;;;3.70;3.30;;;;;;;27.35;29.63;101370.25;4948868;28;20055;-81
2021/06/07 11:11:14;;;;;;;4.15;3.05;;;;;;;27.52;29.63;101374.31;4967226;28;20043;-82
2021/06/07 11:13:46;;;;;;;3.47;3.08;;;;;;;27.58;27.74;101367.53;4942777;28;20053;-82
2021/06/07 11:16:34;;;;;;;3.15;2.85;;;;;;;27.77;27.09;101365.94;4959601;28;20059;-81
2021/06/07 11:19:02;;;;;;;3.83;3.03;;;;;;;27.86;28.85;101368.91;4942165;28;20065;-80
2021/06/07 11:21:30;;;;;;;4.20;3.22;;;;;;;27.77;28.91;101365.94;4944186;28;20125;-80
2021/06/07 11:23:58;;;;;;;3.70;3.33;;;;;;;27.89;28.71;101369.50;4963240;28;20404;-80
2021/06/07 11:26:39;;;;;;;5.13;3.28;;;;;;;27.56;29.95;101366.78;4935449;28;20047;-80
2021/06/07 11:29:08;;;;;;;3.58;3.15;;;;;;;27.62;28.20;101355.44;4932659;28;20047;-80
2021/06/07 11:31:35;;;;;;;3.83;3.13;;;;;;;27.76;29.41;101364.22;4963676;28;20073;-82
2021/06/07 11:34:10;;;;;;;3.83;3.00;;;;;;;27.67;28.26;101367.69;4968526;28;20050;-81
2021/06/07 11:36:49;;;;;;;3.25;2.95;;;;;;;27.61;28.90;101360.00;4963941;28;20039;-81
2021/06/07 11:39:41;;;;;;;3.00;2.70;;;;;;;27.61;27.39;101353.72;4983160;28;20073;-80